aviador You're here:

KCON Decoded Metar

CONCORD in NH, USA
Report Time2017-11-23 02:51:00
UTC Time2017-11-23 03:25:17
Flight Rules vfr VFR
Wind300° at 13 Gusting to 22 kt
W.Decomp.*RWY 30: 12.5 kt HW 3.6 kt RCW
RWY 35: 10.8 kt HW 7.3 kt LCW
W.Rank300° ranks 3
Current wind is above 300° avg. (8.6)
Visibility9999 m
Phenomena:N/A
Clouds:Broken 032 Hf
Overcast 040 Hf
Expected CloudBase > 2,000 ft AGL from Temp-Dew spread
Ceiling3,200 ft
Temp02°C (ISA -12)
Dew Point-3°C (70% RH)
AAT-5.1°C
QNH1012 hPa
Density Alt-1,056 ft
Elevation338 ft
Report Wrong Elevation
Raw Report
METAR KCON 230251Z AUTO 30013G22KT 10SM BKN032 OVC040 02/M03 A2989
RMK AO2 SLP126 T00221033 50004=

Extra information for KCON:More info

Metar Taf Metar & Taf Last 4 Metars F.Rules Stats Wind Profile Meteogram Temp Stats Airport Information Weather charts Add Link Nearby VenuesMetar ALERT Operation Metar Decoded Social comments

AIRNAV info for KCON